createdAt,value
2019-04-25T00:00:47.978Z,44.53
2019-04-25T00:03:17.882Z,45.36
2019-04-25T00:05:46.873Z,48.62
2019-04-25T00:08:15.181Z,49.10
2019-04-25T00:10:43.867Z,50.16
2019-04-25T00:13:12.175Z,51.03
2019-04-25T00:15:42.173Z,49.25
2019-04-25T00:18:11.901Z,49.66
2019-04-25T00:20:42.669Z,50.16
2019-04-25T00:23:18.858Z,50.93
2019-04-25T00:25:49.206Z,50.83
2019-04-25T00:28:17.702Z,51.07
2019-04-25T00:30:46.101Z,49.73
2019-04-25T00:33:14.300Z,49.12
2019-04-25T00:35:44.570Z,47.01
2019-04-25T00:38:12.570Z,51.05
2019-04-25T00:40:42.708Z,48.18
2019-04-25T00:43:11.438Z,48.24
2019-04-25T00:45:41.490Z,47.23
2019-04-25T00:48:09.861Z,47.33
2019-04-25T00:50:38.158Z,48.42
2019-04-25T00:53:06.395Z,48.74
2019-04-25T00:55:34.672Z,48.83
2019-04-25T00:58:04.581Z,45.72
2019-04-25T01:00:41.597Z,45.63
2019-04-25T01:03:11.674Z,44.67
2019-04-25T01:05:39.912Z,46.20
2019-04-25T01:08:08.185Z,44.31
2019-04-25T01:10:36.431Z,43.46
2019-04-25T01:13:04.833Z,44.37
2019-04-25T01:15:33.093Z,43.71
2019-04-25T01:18:01.367Z,43.01
2019-04-25T01:20:29.634Z,42.83
2019-04-25T01:23:00.753Z,43.58
2019-04-25T01:25:38.626Z,43.27
2019-04-25T01:27:57.876Z,43.11
2019-04-25T01:30:27.900Z,43.31
2019-04-25T01:32:56.719Z,43.08
2019-04-25T01:35:26.835Z,43.19
2019-04-25T01:37:59.171Z,43.42
2019-04-25T01:40:44.171Z,47.15
2019-04-25T01:43:14.422Z,44.43
2019-04-25T01:45:43.817Z,43.93
2019-04-25T01:48:13.602Z,43.11
2019-04-25T01:50:43.751Z,44.69
2019-04-25T01:53:12.073Z,44.22
2019-04-25T01:55:51.792Z,43.85
2019-04-25T01:58:10.442Z,43.41
2019-04-25T02:00:45.045Z,42.87
2019-04-25T02:03:13.517Z,44.06
2019-04-25T02:05:41.839Z,44.76
2019-04-25T02:08:10.161Z,42.45
2019-04-25T02:10:38.409Z,41.57
2019-04-25T02:13:19.995Z,42.20
2019-04-25T02:15:48.244Z,40.86
2019-04-25T02:18:16.551Z,40.36
2019-04-25T02:20:44.819Z,41.82
2019-04-25T02:23:14.156Z,42.88
2019-04-25T02:25:44.108Z,42.73
2019-04-25T02:28:13.912Z,42.96
2019-04-25T02:30:45.140Z,42.50
2019-04-25T02:33:14.206Z,42.07
2019-04-25T02:35:46.163Z,41.87
2019-04-25T02:38:14.694Z,41.52
2019-04-25T02:40:45.299Z,42.26
2019-04-25T02:43:14.264Z,42.98
2019-04-25T02:46:00.494Z,42.24
2019-04-25T02:48:47.471Z,42.47
2019-04-25T02:51:20.659Z,42.64
2019-04-25T02:53:50.554Z,41.86
2019-04-25T02:56:30.551Z,41.00
2019-04-25T02:58:48.963Z,42.27
2019-04-25T03:01:22.723Z,41.88
2019-04-25T03:03:48.968Z,41.99
2019-04-25T03:06:17.320Z,41.22
2019-04-25T03:08:45.637Z,41.76
2019-04-25T03:11:14.934Z,42.49
2019-04-25T03:13:44.203Z,42.96
2019-04-25T03:16:14.005Z,42.40
2019-04-25T03:18:44.440Z,41.44
2019-04-25T03:21:17.348Z,43.38
2019-04-25T03:23:46.298Z,44.47
2019-04-25T03:26:14.759Z,43.31
2019-04-25T03:28:43.822Z,41.85
2019-04-25T03:31:20.818Z,41.80
2019-04-25T03:33:45.694Z,43.26
2019-04-25T03:36:13.976Z,42.67
2019-04-25T03:38:44.184Z,43.16
2019-04-25T03:41:14.365Z,42.53
2019-04-25T03:43:44.131Z,41.84
2019-04-25T03:46:14.097Z,42.75
2019-04-25T03:48:43.965Z,41.77
2019-04-25T03:51:15.346Z,45.36
2019-04-25T03:53:43.784Z,44.88
2019-04-25T03:56:12.947Z,44.25
2019-04-25T03:58:43.807Z,44.77
2019-04-25T04:01:12.040Z,44.54
2019-04-25T04:03:40.281Z,43.27
2019-04-25T04:06:08.926Z,42.26
2019-04-25T04:08:37.969Z,42.52
2019-04-25T04:11:07.450Z,45.24
2019-04-25T04:13:36.232Z,42.04
2019-04-25T04:16:05.262Z,41.48
2019-04-25T04:18:41.024Z,41.32
2019-04-25T04:21:23.526Z,41.30
2019-04-25T04:23:57.248Z,41.88
2019-04-25T04:26:25.766Z,42.33
2019-04-25T04:28:54.047Z,43.07
2019-04-25T04:31:23.550Z,43.05
2019-04-25T04:33:53.098Z,42.63
2019-04-25T04:36:21.374Z,43.15
2019-04-25T04:38:49.689Z,42.35
2019-04-25T04:41:17.961Z,42.89
2019-04-25T04:43:46.215Z,43.24
2019-04-25T04:46:17.115Z,43.16
2019-04-25T04:48:44.480Z,42.71
2019-04-25T04:51:14.560Z,42.54
2019-04-25T04:53:43.791Z,42.73
2019-04-25T04:56:14.180Z,43.18
2019-04-25T04:58:43.196Z,43.01
2019-04-25T05:01:12.483Z,43.08
2019-04-25T05:03:48.934Z,43.64
2019-04-25T05:06:33.875Z,43.60
2019-04-25T05:09:09.967Z,42.28
2019-04-25T05:11:38.238Z,43.04
2019-04-25T05:14:06.485Z,44.66
2019-04-25T05:16:34.756Z,44.03
2019-04-25T05:19:03.741Z,45.10
2019-04-25T05:21:33.577Z,45.18
2019-04-25T05:24:01.883Z,43.49
2019-04-25T05:26:30.162Z,43.98
2019-04-25T05:28:58.418Z,44.60
2019-04-25T05:31:31.161Z,44.21
2019-04-25T05:33:59.429Z,43.94
2019-04-25T05:36:29.325Z,44.35
2019-04-25T05:38:57.600Z,43.20
2019-04-25T05:41:27.484Z,43.58
2019-04-25T05:43:55.751Z,44.64
2019-04-25T05:46:25.381Z,42.63
2019-04-25T05:48:54.014Z,42.81
2019-04-25T05:51:23.918Z,42.58
2019-04-25T05:53:52.261Z,41.92
2019-04-25T05:56:20.516Z,41.90
2019-04-25T05:58:48.861Z,41.51
2019-04-25T06:01:17.222Z,40.59
2019-04-25T06:03:46.331Z,41.41
2019-04-25T06:06:14.616Z,41.50
2019-04-25T06:08:54.239Z,41.36
2019-04-25T06:11:43.779Z,41.02
2019-04-25T06:14:13.668Z,42.01
2019-04-25T06:16:43.646Z,42.77
2019-04-25T06:19:18.485Z,42.27
2019-04-25T06:21:46.143Z,42.10
2019-04-25T06:24:25.970Z,42.60
2019-04-25T06:26:56.504Z,42.08
2019-04-25T06:29:24.858Z,42.25
2019-04-25T06:32:04.274Z,43.60
2019-04-25T06:34:25.175Z,42.76
2019-04-25T06:36:53.674Z,42.88
2019-04-25T06:39:22.022Z,41.87
2019-04-25T06:41:50.265Z,42.29
2019-04-25T06:44:32.986Z,40.78
2019-04-25T06:47:03.598Z,40.25
2019-04-25T06:49:36.395Z,41.61
2019-04-25T06:52:04.166Z,40.85
2019-04-25T06:54:33.543Z,40.58
2019-04-25T06:57:04.423Z,39.86
2019-04-25T06:59:34.491Z,39.67
2019-04-25T07:02:04.234Z,39.52
2019-04-25T07:04:33.944Z,37.81
2019-04-25T07:07:10.447Z,38.25
2019-04-25T07:09:34.553Z,38.98
2019-04-25T07:12:03.573Z,38.39
2019-04-25T07:14:33.855Z,40.29
2019-04-25T07:17:02.015Z,39.80
2019-04-25T07:19:30.273Z,40.01
2019-04-25T07:21:59.507Z,39.20
2019-04-25T07:24:27.784Z,38.70
2019-04-25T07:27:13.738Z,38.35
2019-04-25T07:29:59.610Z,37.44
2019-04-25T07:32:31.204Z,38.23
2019-04-25T07:34:59.531Z,39.28
2019-04-25T07:37:27.807Z,39.80
2019-04-25T07:39:56.106Z,39.96
2019-04-25T07:42:25.939Z,39.37
2019-04-25T07:44:55.174Z,39.28
2019-04-25T07:47:24.226Z,39.73
2019-04-25T07:49:54.129Z,39.13
2019-04-25T07:52:23.370Z,38.95
2019-04-25T07:54:51.653Z,39.24
2019-04-25T07:57:19.954Z,39.65
2019-04-25T07:59:48.204Z,39.79
2019-04-25T08:02:16.529Z,39.15
2019-04-25T08:04:44.805Z,39.61
2019-04-25T08:07:14.230Z,39.64
2019-04-25T08:09:44.237Z,39.00
2019-04-25T08:12:13.312Z,38.65
2019-04-25T08:14:49.177Z,38.53
2019-04-25T08:17:31.428Z,37.92
2019-04-25T08:19:59.694Z,37.71
2019-04-25T08:22:27.945Z,37.30
2019-04-25T08:24:56.206Z,37.33
2019-04-25T08:27:25.036Z,36.95
2019-04-25T08:29:54.244Z,36.75
2019-04-25T08:32:23.800Z,35.77
2019-04-25T08:34:54.175Z,36.54
2019-04-25T08:37:24.095Z,36.18
2019-04-25T08:39:53.924Z,35.32
2019-04-25T08:42:22.237Z,36.16
2019-04-25T08:44:50.496Z,36.01
2019-04-25T08:47:18.778Z,36.39
2019-04-25T08:49:49.614Z,36.67
2019-04-25T08:52:18.267Z,36.85
2019-04-25T08:54:48.199Z,36.35
2019-04-25T08:57:18.184Z,37.90
2019-04-25T08:59:52.321Z,36.41
2019-04-25T09:02:19.821Z,36.55
2019-04-25T09:04:58.568Z,36.32
2019-04-25T09:07:27.001Z,36.74
2019-04-25T09:09:55.267Z,37.15
2019-04-25T09:12:24.049Z,35.57
2019-04-25T09:14:54.097Z,34.89
2019-04-25T09:17:24.199Z,35.32
2019-04-25T09:19:54.058Z,34.52
2019-04-25T09:22:24.143Z,35.36
2019-04-25T09:24:54.009Z,35.64
2019-04-25T09:27:23.524Z,35.81
2019-04-25T09:29:51.851Z,35.77
2019-04-25T09:32:20.129Z,34.56
2019-04-25T09:34:52.307Z,33.19
2019-04-25T09:37:22.416Z,34.71
2019-04-25T09:39:57.989Z,34.32
2019-04-25T09:42:26.255Z,32.78
2019-04-25T09:45:15.251Z,33.50
2019-04-25T09:47:45.774Z,34.70
2019-04-25T09:50:15.719Z,32.00
2019-04-25T09:52:44.373Z,32.01
2019-04-25T09:55:15.674Z,30.59
2019-04-25T09:57:51.017Z,31.10
2019-04-25T10:00:21.081Z,32.08
2019-04-25T10:02:49.325Z,30.21
2019-04-25T10:05:17.652Z,29.78
2019-04-25T10:07:47.679Z,29.94
2019-04-25T10:10:16.081Z,29.14
2019-04-25T10:12:45.282Z,29.04
2019-04-25T10:15:39.447Z,29.71
2019-04-25T10:18:07.770Z,28.91
2019-04-25T10:20:37.571Z,29.22
2019-04-25T10:23:06.220Z,28.86
2019-04-25T10:25:34.484Z,28.89
2019-04-25T10:28:04.357Z,28.03
2019-04-25T10:30:34.258Z,27.46
2019-04-25T10:33:04.099Z,28.02
2019-04-25T10:35:40.872Z,29.08
2019-04-25T10:38:03.531Z,28.05
2019-04-25T10:40:33.706Z,27.69
2019-04-25T10:43:03.930Z,26.90
2019-04-25T10:45:33.961Z,27.35
2019-04-25T10:48:02.202Z,28.62
2019-04-25T10:50:30.434Z,27.58
2019-04-25T10:52:58.696Z,27.13
2019-04-25T10:55:27.048Z,27.81
2019-04-25T10:57:56.335Z,27.23
2019-04-25T11:00:40.551Z,26.89
2019-04-25T11:03:19.846Z,26.50
2019-04-25T11:05:48.274Z,25.89
2019-04-25T11:08:16.965Z,26.15
2019-04-25T11:10:47.474Z,26.52
2019-04-25T11:13:15.760Z,25.95
2019-04-25T11:15:44.854Z,26.16
2019-04-25T11:18:15.163Z,26.16
2019-04-25T11:20:44.633Z,26.24
2019-04-25T11:23:14.006Z,26.37
2019-04-25T11:25:43.414Z,26.12
2019-04-25T11:28:14.340Z,25.99
2019-04-25T11:30:45.320Z,26.26
2019-04-25T11:33:14.370Z,26.60
2019-04-25T11:35:43.951Z,25.73
2019-04-25T11:38:14.518Z,26.10
2019-04-25T11:40:59.517Z,26.59
2019-04-25T11:43:27.774Z,26.24
2019-04-25T11:45:57.118Z,25.74
2019-04-25T11:48:25.407Z,24.55
2019-04-25T11:50:55.791Z,24.83
2019-04-25T11:53:25.004Z,24.28
2019-04-25T11:55:54.647Z,24.25
2019-04-25T11:58:23.646Z,24.33
2019-04-25T12:00:53.468Z,23.47
2019-04-25T12:03:23.211Z,23.91
2019-04-25T12:05:51.860Z,23.68
2019-04-25T12:08:20.192Z,23.60
2019-04-25T12:10:49.408Z,23.68
2019-04-25T12:13:17.897Z,22.50
2019-04-25T12:15:47.106Z,23.58
2019-04-25T12:18:15.448Z,23.04
2019-04-25T12:20:45.863Z,22.44
2019-04-25T12:23:14.432Z,22.14
2019-04-25T12:25:45.319Z,21.84
2019-04-25T12:28:14.200Z,22.70
2019-04-25T12:30:43.886Z,22.76
2019-04-25T12:33:20.440Z,21.56
2019-04-25T12:35:43.676Z,22.39
2019-04-25T12:38:14.017Z,21.68
2019-04-25T12:40:43.423Z,21.67
2019-04-25T12:43:13.727Z,21.35
2019-04-25T12:45:43.752Z,21.65
2019-04-25T12:48:14.508Z,22.21
2019-04-25T12:50:43.954Z,22.85
2019-04-25T12:53:13.935Z,22.27
2019-04-25T12:55:44.163Z,21.53
2019-04-25T12:58:13.580Z,21.56
2019-04-25T13:00:51.190Z,20.14
2019-04-25T13:03:12.027Z,20.70
2019-04-25T13:05:40.298Z,20.75
2019-04-25T13:08:08.551Z,19.29
2019-04-25T13:10:36.866Z,18.40
2019-04-25T13:13:05.139Z,19.21
2019-04-25T13:15:34.060Z,19.40
2019-04-25T13:18:03.549Z,18.79
2019-04-25T13:20:31.957Z,18.17
2019-04-25T13:23:00.605Z,19.74
2019-04-25T13:25:29.022Z,19.97
2019-04-25T13:28:16.787Z,19.54
2019-04-25T13:31:09.029Z,19.64
2019-04-25T13:33:39.438Z,20.01
2019-04-25T13:36:14.815Z,20.19
2019-04-25T13:38:43.647Z,19.94
2019-04-25T13:41:13.081Z,20.38
2019-04-25T13:43:41.420Z,20.01
2019-04-25T13:46:10.767Z,19.01
2019-04-25T13:48:39.602Z,19.13
2019-04-25T13:51:07.869Z,18.33
2019-04-25T13:53:36.173Z,17.95
2019-04-25T13:56:05.086Z,18.57
2019-04-25T13:58:34.300Z,19.74
2019-04-25T14:01:12.261Z,19.42
2019-04-25T14:03:34.053Z,19.45
2019-04-25T14:06:03.710Z,19.50
2019-04-25T14:08:33.395Z,19.61
2019-04-25T14:11:01.748Z,19.49
2019-04-25T14:13:30.101Z,20.57
2019-04-25T14:16:00.004Z,20.41
2019-04-25T14:18:32.743Z,19.79
2019-04-25T14:21:03.493Z,20.78
2019-04-25T14:23:31.801Z,20.00
2019-04-25T14:26:00.096Z,19.68
2019-04-25T14:28:30.506Z,21.42
2019-04-25T14:30:58.474Z,21.44
2019-04-25T14:33:27.572Z,20.97
2019-04-25T14:35:56.817Z,21.39
2019-04-25T14:38:26.296Z,20.62
2019-04-25T14:40:54.854Z,20.06
2019-04-25T14:43:23.925Z,20.37
2019-04-25T14:45:52.375Z,20.40
2019-04-25T14:48:20.634Z,19.35
2019-04-25T14:50:48.978Z,19.52
2019-04-25T14:53:17.247Z,19.46
2019-04-25T14:56:03.393Z,19.86
2019-04-25T14:58:33.291Z,18.52
2019-04-25T15:01:01.633Z,18.64
2019-04-25T15:03:29.891Z,18.84
2019-04-25T15:05:58.231Z,18.10
2019-04-25T15:08:26.624Z,17.35
2019-04-25T15:10:54.847Z,18.61
2019-04-25T15:13:24.167Z,19.02
2019-04-25T15:15:52.644Z,17.89
2019-04-25T15:18:20.903Z,17.71
2019-04-25T15:20:49.191Z,17.65
2019-04-25T15:23:17.467Z,17.08
2019-04-25T15:25:45.765Z,17.17
2019-04-25T15:28:14.040Z,16.84
2019-04-25T15:30:42.399Z,16.42
2019-04-25T15:33:11.743Z,16.68
2019-04-25T15:35:45.003Z,16.59
2019-04-25T15:38:20.929Z,16.98
2019-04-25T15:40:53.317Z,18.09
2019-04-25T15:43:29.199Z,19.63
2019-04-25T15:45:59.883Z,19.79
2019-04-25T15:48:28.889Z,19.73
2019-04-25T15:50:57.245Z,19.27
2019-04-25T15:53:25.531Z,19.35
2019-04-25T15:55:54.434Z,19.24
2019-04-25T15:58:22.798Z,19.09
2019-04-25T16:00:51.132Z,19.18
2019-04-25T16:03:21.033Z,18.76
2019-04-25T16:05:49.320Z,19.56
2019-04-25T16:08:17.673Z,19.32
2019-04-25T16:11:05.756Z,19.06
2019-04-25T16:13:34.421Z,19.92
2019-04-25T16:16:02.925Z,19.08
2019-04-25T16:18:31.219Z,19.03
2019-04-25T16:20:59.524Z,18.18
2019-04-25T16:23:27.862Z,18.02
2019-04-25T16:25:57.026Z,18.14
2019-04-25T16:28:25.314Z,18.95
2019-04-25T16:30:53.544Z,19.31
2019-04-25T16:33:21.805Z,18.99
2019-04-25T16:35:50.173Z,19.57
2019-04-25T16:38:18.541Z,19.82
2019-04-25T16:40:46.818Z,21.59
2019-04-25T16:43:16.705Z,21.51
2019-04-25T16:45:45.372Z,21.41
2019-04-25T16:48:13.816Z,22.90
2019-04-25T16:50:42.128Z,21.18
2019-04-25T16:53:24.912Z,21.44
2019-04-25T16:56:03.606Z,21.07
2019-04-25T16:58:32.685Z,21.12
2019-04-25T17:01:05.654Z,20.67
2019-04-25T17:03:35.563Z,20.41
2019-04-25T17:06:05.068Z,21.02
2019-04-25T17:08:33.793Z,21.54
2019-04-25T17:11:02.057Z,20.90
2019-04-25T17:13:32.294Z,21.29
2019-04-25T17:16:02.301Z,20.56
2019-04-25T17:18:32.254Z,21.79
2019-04-25T17:21:08.175Z,21.70
2019-04-25T17:23:37.000Z,21.30
2019-04-25T17:26:06.180Z,21.74
2019-04-25T17:28:36.930Z,21.25
2019-04-25T17:31:10.137Z,20.80
2019-04-25T17:33:42.607Z,21.70
2019-04-25T17:36:12.538Z,27.92
2019-04-25T17:38:45.488Z,31.92
2019-04-25T17:41:13.887Z,35.16
2019-04-25T17:43:42.149Z,34.74
2019-04-25T17:46:12.122Z,34.26
2019-04-25T17:48:40.541Z,34.82
2019-04-25T17:51:08.816Z,35.50
2019-04-25T17:53:37.080Z,35.21
2019-04-25T17:56:05.353Z,34.87
2019-04-25T17:58:34.563Z,35.71
2019-04-25T18:01:02.953Z,33.80
2019-04-25T18:03:31.233Z,34.92
2019-04-25T18:05:59.532Z,35.09
2019-04-25T18:08:27.792Z,33.71
2019-04-25T18:10:56.148Z,35.44
2019-04-25T18:13:24.416Z,35.13
2019-04-25T18:16:06.594Z,35.16
2019-04-25T18:18:37.083Z,34.61
2019-04-25T18:21:05.313Z,36.03
2019-04-25T18:23:35.280Z,33.97
2019-04-25T18:26:05.128Z,35.46
2019-04-25T18:28:49.765Z,36.67
2019-04-25T18:34:49.373Z,37.46
2019-04-25T18:37:37.163Z,36.07
2019-04-25T18:40:08.771Z,34.55
2019-04-25T18:42:44.657Z,37.98
2019-04-25T18:45:14.629Z,36.93
2019-04-25T18:47:42.904Z,36.73
2019-04-25T18:50:12.872Z,37.80
2019-04-25T18:52:47.012Z,37.93
2019-04-25T18:55:17.187Z,36.03
2019-04-25T18:58:02.404Z,37.57
2019-04-25T19:00:44.583Z,37.11
2019-04-25T19:03:22.445Z,37.15
2019-04-25T19:05:58.114Z,36.57
2019-04-25T19:08:26.403Z,37.79
2019-04-25T19:10:54.780Z,36.60
2019-04-25T19:13:23.048Z,36.61
2019-04-25T19:15:51.565Z,36.71
2019-04-25T19:18:19.990Z,36.68
2019-04-25T19:20:48.271Z,35.77
2019-04-25T19:23:16.564Z,37.34
2019-04-25T19:25:45.754Z,37.09
2019-04-25T19:28:14.195Z,36.51
2019-04-25T19:30:43.060Z,36.95
2019-04-25T19:33:11.393Z,38.71
2019-04-25T19:35:40.782Z,37.18
2019-04-25T19:38:09.719Z,37.76
2019-04-25T19:40:48.538Z,36.95
2019-04-25T19:43:21.184Z,38.66
2019-04-25T19:45:49.462Z,36.70
2019-04-25T19:48:17.802Z,38.21
2019-04-25T19:50:46.074Z,37.76
2019-04-25T19:53:14.360Z,38.38
2019-04-25T19:55:43.444Z,38.60
2019-04-25T19:58:11.771Z,37.72
2019-04-25T20:00:40.051Z,37.21
2019-04-25T20:03:09.951Z,35.42
2019-04-25T20:05:40.048Z,37.47
2019-04-25T20:08:26.313Z,38.13
2019-04-25T20:10:58.673Z,35.37
2019-04-25T20:13:26.952Z,39.16
2019-04-25T20:15:55.216Z,38.17
2019-04-25T20:18:23.493Z,37.97
2019-04-25T20:20:52.016Z,38.10
2019-04-25T20:23:20.505Z,36.68
2019-04-25T20:25:48.865Z,37.46
2019-04-25T20:28:17.121Z,39.76
2019-04-25T20:30:46.018Z,38.60
2019-04-25T20:33:15.536Z,39.02
2019-04-25T20:35:44.830Z,37.81
2019-04-25T20:38:13.915Z,37.66
2019-04-25T20:40:42.163Z,39.51
2019-04-25T20:43:10.423Z,39.76
2019-04-25T20:45:38.869Z,40.50
2019-04-25T20:48:07.221Z,39.01
2019-04-25T20:50:35.512Z,40.33
2019-04-25T20:53:03.797Z,40.17
2019-04-25T20:55:32.051Z,39.82
2019-04-25T20:58:00.336Z,39.35
2019-04-25T21:00:40.374Z,38.61
2019-04-25T21:03:08.978Z,38.65
2019-04-25T21:05:37.315Z,39.18
2019-04-25T21:08:05.610Z,40.72
2019-04-25T21:10:33.871Z,36.76
2019-04-25T21:13:03.414Z,37.03
2019-04-25T21:15:33.346Z,37.88
2019-04-25T21:18:06.122Z,36.85
2019-04-25T21:20:34.389Z,37.86
2019-04-25T21:23:02.677Z,39.18
2019-04-25T21:25:30.965Z,39.90
2019-04-25T21:27:59.231Z,38.31
2019-04-25T21:30:27.523Z,39.70
2019-04-25T21:32:56.089Z,38.53
2019-04-25T21:35:25.712Z,39.22
2019-04-25T21:37:54.009Z,38.56
2019-04-25T21:40:27.074Z,40.29
2019-04-25T21:43:02.888Z,40.10
2019-04-25T21:45:31.513Z,39.08
2019-04-25T21:48:00.805Z,40.98
2019-04-25T21:50:29.331Z,41.35
2019-04-25T21:52:58.200Z,41.88
2019-04-25T21:55:27.528Z,41.28
2019-04-25T21:57:56.243Z,39.33
2019-04-25T22:00:31.127Z,43.48
2019-04-25T22:03:04.443Z,42.16
2019-04-25T22:05:33.191Z,41.84
2019-04-25T22:08:02.542Z,42.62
2019-04-25T22:10:31.275Z,42.50
2019-04-25T22:13:11.401Z,43.37
2019-04-25T22:15:29.848Z,42.11
2019-04-25T22:17:58.775Z,43.70
2019-04-25T22:20:27.035Z,42.90
2019-04-25T22:22:57.020Z,43.75
2019-04-25T22:25:25.652Z,44.20
2019-04-25T22:27:54.751Z,43.99
2019-04-25T22:30:23.204Z,45.52
2019-04-25T22:33:01.916Z,43.98
2019-04-25T22:35:34.521Z,43.27
2019-04-25T22:38:04.200Z,44.37
2019-04-25T22:40:32.766Z,43.66
2019-04-25T22:43:01.733Z,44.03
2019-04-25T22:45:30.132Z,43.98
2019-04-25T22:47:58.779Z,42.40
2019-04-25T22:50:27.319Z,44.18
2019-04-25T22:52:55.591Z,44.64
2019-04-25T22:55:23.844Z,44.01
2019-04-25T22:57:52.125Z,44.16
2019-04-25T23:00:22.406Z,44.97
2019-04-25T23:02:52.507Z,43.86
2019-04-25T23:05:22.768Z,42.83
2019-04-25T23:07:51.580Z,41.89
2019-04-25T23:10:20.205Z,43.89
2019-04-25T23:12:48.475Z,43.45
2019-04-25T23:15:16.749Z,42.33
2019-04-25T23:17:45.018Z,43.03
2019-04-25T23:20:13.909Z,44.01
2019-04-25T23:22:42.188Z,43.04
2019-04-25T23:25:12.548Z,42.88
2019-04-25T23:27:48.112Z,43.28
2019-04-25T23:30:18.307Z,43.46
2019-04-25T23:32:46.563Z,42.61
2019-04-25T23:35:27.916Z,43.94
2019-04-25T23:37:44.829Z,42.61
2019-04-25T23:40:13.715Z,43.43
2019-04-25T23:42:42.194Z,43.16
2019-04-25T23:45:10.634Z,42.34
2019-04-25T23:47:38.912Z,43.64
2019-04-25T23:50:08.607Z,42.70
2019-04-25T23:52:37.182Z,41.93
2019-04-25T23:55:06.774Z,43.82
2019-04-25T23:57:36.359Z,45.96
